Главная страница
METAR-TAF:

METAR-TAF

Аэропорты :

Каяни

Каяани, Финляндия

широта: 64-17N, долгота: 027-41E, высота над уровнем моря: 143 м

Текущие метеонаблюдения

Эта сводка был подготовлена 14 минут назад, в 22:20 UTC
Ветер 7 Узел от южный, изменяющийся между юго-восточный и западный
Температура 19°C
Влажность 68%
Давление 1012 hPa
Видимость 10 км и более
Нет облачности ниже 1500 м, и нет кучево-дождевой облачности

METAR: EFKI 172220Z AUTO 18007KT 130V260 CAVOK 19/13 Q1012

Время: 01:34 (22:34 UTC)

Прогноз

Эта сводка был подготовлена 5 часа и 0 минут назад, в 17:34 UTC
Прогноз действительный с 17-го 18 UTC до 17-го 21 UTC
Ветер 8 Узел от южный
Видимость 10 км и более
Нет облачности ниже 1500 м, и нет кучево-дождевой облачности

TAF: EFKI 171734Z 1718/1721 18008KT CAVOK

Метеонаблюдения и прогнозы для более 4000 аэропортов (сводки METAR и TAF).

Имеющиеся станции представлены на карте желтыми и красными точками.

Чтобы увидеть название станции, наведите на нее мышь.

Затем щелкните, чтобы увидеть метеонаблюдения и метеопрогнозы.

Управление картой: чтобы увеличить масштаб, щелкните зеленые кнопки с черным крестиком; чтобы уменьшить масштаб, щелкните зеленую кнопку с тире; для просмотра соседних карт щелкайте зеленые стрелки.


METAR-TAF: